Galena, Nevada
Current Conditions -  °F | °C
As of 2:55 AM on Sunday 21 Dec 2014 (Local Time) from KRNO Reporting Station
Broken Clouds Broken Clouds  
Wind Chill: 53°   Ceiling: 22000
Heat Index: 53°   Visibility: 10mi
Dew Point: 39°   Wind: 14mph
Humidity: 59%   Direction: 310°NW
Pressure: 30.15"   Gusts: 23mph
Location:  39.3905°N, 119.807°W
Report Text: KRNO 211055Z 31012G20KT 10SM SCT045 BKN220 12/04 A3015 RMK AO2 SLP186 T01170039
Loading
Personal Weather Stations






























Interactive Weather Map New forecast layout! Learn more

10-Day Weather Forecast

Advertisements
Track Severe Weather on mobile